Latest Weather Observations for Loxton

IDS60801

Issued at 11:31 pm CDT Monday 11 December 2017 (issued every 30 minutes, with the page automatically refreshed every 10 minutes)

About weather observations | Map of weather stations | Latest weather observations for SA | Other Formats
Station Details ID: 024024 Name: LOXTON RESEARCH CENTRE Lat: -34.44 Lon: 140.60 Height: 30.1 m
Data from the previous 72 hours. | See also: Recent months at Loxton
Date/Time
CDT
Temp
°C
App
Temp
°C
Dew
Point
°C
Rel
Hum
%
Delta-T
°C
Wind Press
QNH
hPa
Press
MSL
hPa
Rain since
9am
mm
Dir  Spd
km/h
Gust
km/h
Spd
kts
Gust
kts
11/11:30pm 20.9 18.6 10.4 51 5.7 SSW 13 17 7 9 1017.8 1017.7 0.0
11/11:00pm 22.0 19.5 9.8 45 6.6 S 13 20 7 11 1017.9 1017.8 0.0
11/10:30pm 22.7 19.7 9.3 42 7.2 S 15 20 8 11 1017.8 1017.7 0.0
11/10:00pm 23.6 20.0 6.7 33 8.7 SSW 15 22 8 12 1017.8 1017.7 0.0
11/09:30pm 24.3 20.2 4.6 28 9.8 S 15 19 8 10 1017.5 1017.4 0.0
11/09:00pm 24.4 21.3 5.4 29 9.6 S 11 15 6 8 1017.2 1017.1 0.0
11/08:30pm 26.1 22.8 4.7 25 10.8 SSW 11 13 6 7 1017.1 1017.0 0.0
11/08:00pm 28.2 24.4 4.1 21 12.2 SSW 13 19 7 10 1016.9 1016.8 0.0
11/07:30pm 29.9 25.8 4.1 19 13.2 SSW 15 20 8 11 1016.7 1016.6 0.0
11/07:00pm 31.3 27.4 3.2 17 14.3 SSW 13 20 7 11 1016.5 1016.4 0.0
11/06:30pm 31.5 27.1 2.9 16 14.5 SSW 15 26 8 14 1016.2 1016.1 0.0
11/06:00pm 31.9 26.8 3.0 16 14.7 SSW 19 26 10 14 1016.0 1015.9 0.0
11/05:30pm 31.6 27.5 4.5 18 14.1 SSW 15 24 8 13 1016.0 1015.9 0.0
11/05:00pm 32.1 28.4 4.5 17 14.4 SW 13 20 7 11 1016.2 1016.1 0.0
11/04:30pm 31.9 28.0 5.2 18 14.1 SSW 15 26 8 14 1016.5 1016.4 0.0
11/04:00pm 32.3 29.0 6.3 19 14.0 S 13 24 7 13 1016.8 1016.7 0.0
11/03:30pm 31.9 26.8 3.0 16 14.7 WSW 19 28 10 15 1017.1 1017.0 0.0
11/03:00pm 32.0 28.5 7.0 21 13.6 S 15 22 8 12 1017.5 1017.4 0.0
11/02:30pm 31.4 28.0 6.1 20 13.5 SSW 13 24 7 13 1018.0 1017.9 0.0
11/02:00pm 30.8 26.9 5.2 20 13.4 WSW 15 28 8 15 1018.3 1018.2 0.0
11/01:30pm 30.0 25.4 5.6 21 12.8 W 19 28 10 15 1018.9 1018.8 0.0
11/01:00pm 29.4 27.1 7.6 25 11.8 WSW 9 15 5 8 1019.3 1019.2 0.0
11/12:30pm 28.0 26.0 8.6 29 10.6 E 9 13 5 7 1019.8 1019.7 0.0
11/12:00pm 26.9 24.8 8.1 30 10.1 WSW 9 19 5 10 1020.3 1020.2 0.0
11/11:30am 26.3 25.1 10.3 36 8.9 NW 7 11 4 6 1020.7 1020.6 0.0
11/11:00am 25.5 23.3 9.4 36 8.8 WSW 11 15 6 8 1020.9 1020.8 0.0
11/10:30am 23.8 22.7 10.8 44 7.2 SSW 7 11 4 6 1021.1 1021.0 0.0
11/10:00am 22.5 21.7 11.1 48 6.3 SE 6 9 3 5 1021.5 1021.4 0.0
11/09:30am 21.2 21.7 11.7 54 5.3 CALM 0 0 0 0 1021.5 1021.4 0.0
11/09:00am 20.1 19.3 11.6 58 4.7 ESE 7 11 4 6 1021.6 1021.5 -
11/08:30am 18.1 16.4 11.1 63 3.8 SE 11 15 6 8 1021.8 1021.7 -
11/08:00am 16.9 14.7 10.7 67 3.3 SSE 13 17 7 9 1021.6 1021.5 -
11/07:30am 15.0 12.7 10.4 74 2.4 S 13 19 7 10 1021.4 1021.3 -
11/07:00am 13.7 11.3 10.0 78 1.9 S 13 17 7 9 1021.3 1021.2 -
11/06:30am 12.8 11.5 10.1 84 1.4 SW 7 11 4 6 1021.0 1020.9 -
11/05:00am 12.6 11.0 10.1 85 1.3 SW 9 13 5 7 1020.6 1020.5 -
11/04:30am 12.9 11.6 10.0 82 1.5 SSW 7 11 4 6 1020.3 1020.2 -
11/04:00am 13.2 11.9 10.1 81 1.6 SSW 7 11 4 6 1020.2 1020.1 -
11/03:30am 13.6 12.4 10.3 80 1.7 S 7 9 4 5 1020.2 1020.1 -
11/03:00am 14.2 12.3 10.4 78 2.0 SSW 11 15 6 8 1020.4 1020.3 0.0
11/02:30am 14.8 12.8 10.2 74 2.4 SSW 11 17 6 9 1020.7 1020.6 -
11/02:00am 15.3 13.0 10.3 72 2.6 SSW 13 17 7 9 1020.9 1020.8 -
11/01:30am 15.9 13.9 10.2 69 3.0 SSW 11 17 6 9 1021.2 1021.1 -
11/01:00am 16.8 13.6 9.9 64 3.6 SSW 17 26 9 14 1021.3 1021.2 -
11/12:30am 17.6 14.7 9.6 59 4.2 SSW 15 24 8 13 1021.5 1021.4 -
11/12:00am 18.4 15.4 9.2 55 4.8 S 15 22 8 12 1021.7 1021.6 -
 
Date/Time
CDT
Temp
°C
App
Temp
°C
Dew
Point
°C
Rel
Hum
%
Delta-T
°C
Wind Press
QNH
hPa
Press
MSL
hPa
Rain since
9am
mm
Dir  Spd
km/h
Gust
km/h
Spd
kts
Gust
kts
10/11:30pm 19.5 16.0 8.8 50 5.6 SSW 17 26 9 14 1021.6 1021.5 -
10/11:00pm 20.3 16.6 8.1 45 6.3 SSW 17 24 9 13 1021.6 1021.5 -
10/10:30pm 21.3 17.9 7.8 41 7.0 S 15 24 8 13 1021.5 1021.4 -
10/10:00pm 22.2 18.7 7.0 37 7.8 S 15 22 8 12 1021.2 1021.1 -
10/09:30pm 23.2 19.6 6.9 35 8.4 S 15 20 8 11 1021.0 1020.9 -
10/09:00pm 24.6 20.7 6.9 32 9.2 S 17 22 9 12 1020.7 1020.6 0.0
10/08:30pm 25.9 22.3 6.8 29 10.0 S 15 26 8 14 1020.3 1020.2 -
10/08:00pm 27.0 23.4 6.6 27 10.7 S 15 20 8 11 1019.9 1019.8 -
10/07:30pm 28.3 24.6 6.2 24 11.6 S 15 22 8 12 1019.6 1019.5 -
10/07:00pm 29.1 24.5 5.8 23 12.2 S 19 28 10 15 1019.4 1019.3 -
10/06:30pm 29.9 25.8 4.4 20 13.1 SSW 15 22 8 12 1019.1 1019.0 -
10/06:00pm 30.5 26.1 5.0 20 13.3 SSW 17 22 9 12 1019.0 1018.9 -
10/05:30pm 30.1 25.7 4.8 20 13.1 SSW 17 24 9 13 1019.0 1018.9 -
10/05:00pm 30.4 25.8 5.4 20 13.1 SSW 19 32 10 17 1019.2 1019.1 -
10/04:30pm 30.3 26.9 5.9 21 12.9 SW 13 30 7 16 1019.5 1019.4 -
10/04:00pm 30.1 26.0 6.1 22 12.7 SSW 17 28 9 15 1019.8 1019.7 -
10/03:30pm 29.7 25.9 5.7 22 12.6 SSW 15 26 8 14 1020.1 1020.0 -
10/03:00pm 29.6 25.7 5.2 21 12.7 WNW 15 24 8 13 1020.4 1020.3 -
10/02:30pm 29.1 24.9 5.5 22 12.3 W 17 26 9 14 1020.9 1020.8 -
10/02:00pm 28.5 24.1 6.5 25 11.7 W 19 26 10 14 1021.3 1021.2 -
10/01:30pm 28.0 24.6 7.7 27 10.9 W 15 28 8 15 1021.8 1021.7 -
10/01:00pm 26.8 23.8 7.7 29 10.2 SW 13 24 7 13 1022.2 1022.1 -
10/12:30pm 25.7 22.5 8.4 33 9.3 WSW 15 22 8 12 1022.7 1022.6 -
10/12:00pm 25.1 22.2 8.0 33 9.1 WSW 13 19 7 10 1023.0 1022.9 -
10/11:30am 23.7 21.8 9.0 39 7.9 SW 9 15 5 8 1023.4 1023.3 -
10/11:00am 22.6 21.2 9.4 43 7.1 SE 7 11 4 6 1023.8 1023.7 -
10/10:30am 21.5 19.6 9.0 44 6.6 W 9 15 5 8 1024.0 1023.9 0.0
10/10:00am 20.9 19.6 10.1 50 5.8 ENE 7 13 4 7 1024.3 1024.2 0.0
10/09:30am 20.0 18.3 9.9 52 5.4 E 9 13 5 7 1024.5 1024.4 0.0
10/09:00am 18.8 17.1 9.9 56 4.7 SE 9 15 5 8 1024.6 1024.5 0.0
10/08:30am 18.1 15.7 10.0 59 4.3 SE 13 19 7 10 1024.7 1024.6 0.0
10/08:00am 16.5 13.2 9.6 63 3.6 SE 17 24 9 13 1024.5 1024.4 0.0
10/07:30am 15.3 13.1 9.5 68 3.0 SSE 11 17 6 9 1024.3 1024.2 0.0
10/07:00am 13.3 11.1 9.4 77 2.0 SSE 11 17 6 9 1023.9 1023.8 0.0
10/06:30am 12.2 10.8 9.4 83 1.4 SSE 7 11 4 6 1023.5 1023.4 0.0
10/06:00am 11.0 9.8 9.4 90 0.8 SE 6 7 3 4 1023.4 1023.3 0.0
10/05:30am 11.5 10.1 9.5 87 1.0 S 7 9 4 5 1023.0 1022.9 0.0
10/05:00am 12.0 10.2 9.6 85 1.2 S 9 13 5 7 1022.7 1022.6 0.0
10/04:30am 12.4 10.3 9.8 84 1.3 S 11 13 6 7 1022.5 1022.4 0.0
10/04:00am 13.0 11.0 10.1 82 1.5 S 11 15 6 8 1022.4 1022.3 0.0
10/03:30am 13.4 11.4 10.1 80 1.7 S 11 15 6 8 1022.2 1022.1 0.0
10/03:00am 13.9 11.9 10.0 77 2.0 S 11 15 6 8 1022.1 1022.0 0.0
10/02:30am 14.3 11.9 10.1 76 2.2 S 13 17 7 9 1022.1 1022.0 0.0
10/02:00am 14.9 12.5 10.1 73 2.5 S 13 19 7 10 1022.4 1022.3 0.0
10/01:30am 15.7 12.6 10.2 70 2.9 S 17 24 9 13 1022.4 1022.3 0.0
10/01:00am 16.1 13.0 10.2 68 3.1 S 17 24 9 13 1022.4 1022.3 0.0
10/12:30am 16.6 13.4 10.1 65 3.4 S 17 22 9 12 1022.7 1022.6 0.0
10/12:00am 17.3 13.7 9.9 62 3.9 S 19 26 10 14 1022.8 1022.7 0.0
 
Date/Time
CDT
Temp
°C
App
Temp
°C
Dew
Point
°C
Rel
Hum
%
Delta-T
°C
Wind Press
QNH
hPa
Press
MSL
hPa
Rain since
9am
mm
Dir  Spd
km/h
Gust
km/h
Spd
kts
Gust
kts
09/11:30pm 17.7 14.0 9.5 58 4.3 S 19 24 10 13 1022.8 1022.7 0.0
09/11:00pm 18.4 14.6 9.2 55 4.8 S 19 24 10 13 1022.8 1022.7 0.0
09/10:30pm 19.3 15.9 9.0 51 5.4 S 17 24 9 13 1022.7 1022.6 0.0
09/10:00pm 20.1 16.2 8.8 48 5.9 S 19 26 10 14 1022.6 1022.5 0.0
09/09:30pm 20.9 17.5 9.0 46 6.3 S 17 22 9 12 1022.3 1022.2 0.0
09/09:00pm 21.8 18.4 9.0 44 6.8 S 17 24 9 13 1022.0 1021.9 0.0
09/08:30pm 22.8 19.3 8.7 40 7.5 S 17 24 9 13 1021.7 1021.6 0.0
09/08:00pm 23.9 20.3 8.2 36 8.3 S 17 24 9 13 1021.4 1021.3 0.0
09/07:30pm 25.2 21.0 7.3 32 9.4 S 19 26 10 14 1021.2 1021.1 0.0
09/07:00pm 26.1 22.3 7.7 31 9.8 S 17 20 9 11 1020.9 1020.8 0.0
09/06:30pm 26.5 21.9 6.6 28 10.4 SSW 20 28 11 15 1020.5 1020.4 0.0
09/06:00pm 26.9 22.3 5.5 25 11.0 S 19 30 10 16 1020.4 1020.3 0.0
09/05:30pm 27.2 22.7 6.1 26 11.0 SW 19 32 10 17 1020.5 1020.4 0.0
09/05:00pm 27.3 23.7 6.8 27 10.8 SSW 15 28 8 15 1020.4 1020.3 0.0
09/04:30pm 27.6 22.8 4.9 23 11.6 SW 19 30 10 16 1020.7 1020.6 0.0
09/04:00pm 27.1 22.5 5.6 25 11.1 SSW 19 33 10 18 1020.9 1020.8 0.0
09/03:30pm 27.1 23.6 5.6 25 11.1 S 13 26 7 14 1021.2 1021.1 0.0
09/03:00pm 26.7 23.3 6.1 27 10.7 SSW 13 20 7 11 1021.5 1021.4 0.0
09/02:30pm 26.4 21.8 5.8 26 10.6 SW 19 28 10 15 1021.8 1021.7 0.0
09/02:00pm 26.6 22.4 5.9 26 10.7 WSW 17 24 9 13 1022.2 1022.1 0.0
09/01:30pm 25.3 22.7 6.3 29 9.8 SSW 9 22 5 12 1022.4 1022.3 0.0
09/01:00pm 24.5 20.4 6.1 30 9.4 WSW 17 28 9 15 1022.7 1022.6 0.0
09/12:30pm 24.5 21.4 7.3 33 9.0 WSW 13 22 7 12 1022.9 1022.8 0.0
09/12:00pm 23.6 20.8 7.0 34 8.6 WSW 11 20 6 11 1023.2 1023.1 0.0
09/11:30am 23.2 21.2 8.7 39 7.7 SW 9 20 5 11 1023.5 1023.4 0.0
09/11:00am 21.8 19.3 8.0 41 7.2 SSW 11 20 6 11 1023.9 1023.8 0.0
09/10:30am 21.4 19.4 8.7 44 6.7 WSW 9 17 5 9 1024.1 1024.0 0.0
09/10:00am 19.6 17.3 9.1 50 5.5 SW 11 19 6 10 1024.1 1024.0 0.0
09/09:30am 18.9 16.9 10.1 56 4.7 SW 11 19 6 10 1024.2 1024.1 0.0
09/09:00am 18.7 16.9 10.9 60 4.2 SSW 11 17 6 9 1024.2 1024.1 0.0
09/08:30am 17.4 15.7 11.1 66 3.4 SSW 11 19 6 10 1024.1 1024.0 0.0
09/08:00am 15.8 14.0 10.9 72 2.6 SSW 11 15 6 8 1023.8 1023.7 0.0
09/07:30am 14.3 13.3 10.3 77 2.1 W 6 7 3 4 1023.4 1023.3 0.0
09/07:00am 12.1 10.8 9.1 82 1.5 W 6 9 3 5 1023.1 1023.0 0.0
09/06:30am 10.3 9.9 8.2 87 1.0 CALM 0 0 0 0 1022.8 1022.7 0.0
09/06:00am 9.1 8.6 7.8 92 0.6 CALM 0 0 0 0 1022.5 1022.4 0.0
09/05:30am 9.4 8.9 7.9 90 0.7 CALM 0 0 0 0 1022.2 1022.1 0.0
09/05:00am 10.4 8.3 8.3 87 1.0 SSW 9 13 5 7 1021.9 1021.8 0.0
09/04:30am 10.0 8.2 8.1 88 0.9 S 7 11 4 6 1021.8 1021.7 0.0
09/04:00am 9.6 7.7 7.5 87 1.0 SW 7 11 4 6 1021.5 1021.4 0.0
09/03:30am 10.7 8.8 7.6 81 1.5 SW 7 9 4 5 1021.3 1021.2 0.0
09/03:00am 11.0 8.8 7.7 80 1.6 SW 9 11 5 6 1021.2 1021.1 0.0
09/02:30am 11.6 9.4 7.7 77 1.9 SW 9 13 5 7 1021.4 1021.3 0.0
09/02:00am 12.5 9.9 7.8 73 2.3 SSW 11 17 6 9 1021.5 1021.4 0.0
09/01:30am 13.1 10.1 7.8 70 2.6 SSW 13 19 7 10 1021.3 1021.2 0.0
09/01:00am 13.0 10.4 7.7 70 2.6 SSW 11 15 6 8 1021.5 1021.4 0.0
09/12:30am 13.5 10.4 7.3 66 3.0 SSW 13 17 7 9 1021.4 1021.3 0.0
09/12:00am 14.2 11.0 7.0 62 3.5 SSW 13 20 7 11 1021.4 1021.3 0.0

Other Formats:

Comma delimited format used in spreadsheet applications
http://www.bom.gov.au/fwo/IDS60801/IDS60801.94682.axf

JavaScript Object Notation format (JSON) in row-major order
http://www.bom.gov.au/fwo/IDS60801/IDS60801.94682.json